Time;durP1;ratioP1;P1;durP2;ratioP2;P2;SDS_P1;SDS_P2;PMS_P1;PMS_P2;Temp;Humidity;BMP_temperature;BMP_pressure;BME280_temperature;BME280_humidity;BME280_pressure;Samples;Min_cycle;Max_cycle;Signal;HPM_P1;HPM_P2
2022/01/13 00:01:09;;;;;;;71.20;25.30;;;6.00;99.90;;;;;;6160061;23;20048;-91
2022/01/13 00:03:35;;;;;;;70.78;25.38;;;6.00;99.90;;;;;;6159974;23;20017;-86
2022/01/13 00:06:01;;;;;;;84.03;26.20;;;6.00;99.90;;;;;;6160033;23;20028;-94
2022/01/13 00:08:26;;;;;;;78.50;24.83;;;6.00;99.90;;;;;;6159842;23;20028;-84
2022/01/13 00:10:52;;;;;;;84.40;25.00;;;6.00;99.90;;;;;;6159816;23;20056;-85
2022/01/13 00:13:24;;;;;;;94.60;27.00;;;5.90;99.90;;;;;;6160299;23;20024;-89
2022/01/13 00:16:12;;;;;;;91.97;27.88;;;6.00;99.90;;;;;;6159804;23;20053;-89
2022/01/13 00:18:40;;;;;;;110.38;25.65;;;6.00;99.90;;;;;;6160117;23;20048;-85
2022/01/13 00:24:03;;;;;;;94.75;26.27;;;6.00;99.90;;;;;;6140925;23;20021;-88
2022/01/13 00:26:30;;;;;;;98.10;27.23;;;5.90;99.90;;;;;;6160455;23;20021;-95
2022/01/13 00:28:59;;;;;;;94.18;26.35;;;5.90;99.90;;;;;;6159535;23;20446;-96
2022/01/13 00:31:28;;;;;;;88.85;24.85;;;6.00;99.90;;;;;;6160581;23;20021;-85
2022/01/13 00:34:00;;;;;;;91.20;22.58;;;5.90;99.90;;;;;;6186030;23;20031;-86
2022/01/13 00:36:28;;;;;;;91.18;21.77;;;5.90;99.90;;;;;;6160042;23;20012;-87
2022/01/13 00:38:55;;;;;;;70.60;20.42;;;5.90;99.90;;;;;;6159638;23;20020;-87
2022/01/13 00:41:23;;;;;;;84.25;21.00;;;5.90;99.90;;;;;;6159629;23;20072;-86
2022/01/13 00:43:48;;;;;;;92.07;21.98;;;5.80;99.90;;;;;;6159817;23;20028;-87
2022/01/13 00:46:21;;;;;;;94.30;23.90;;;5.80;99.90;;;;;;6186722;23;20017;-84
2022/01/13 00:48:47;;;;;;;95.28;21.75;;;5.80;99.90;;;;;;6159655;23;20478;-85
2022/01/13 00:51:13;;;;;;;88.50;21.70;;;5.80;99.90;;;;;;6159546;23;20446;-92
2022/01/13 00:53:39;;;;;;;93.73;22.07;;;5.80;99.90;;;;;;6160048;23;20028;-89
2022/01/13 00:56:05;;;;;;;98.57;24.67;;;5.70;99.90;;;;;;6159773;23;20354;-95
2022/01/13 00:58:33;;;;;;;101.13;24.08;;;5.70;99.90;;;;;;6159607;23;20017;-85
2022/01/13 01:01:00;;;;;;;114.32;24.17;;;5.80;99.90;;;;;;6185872;23;20342;-95
2022/01/13 01:03:26;;;;;;;141.40;26.38;;;5.70;99.90;;;;;;6159635;23;20117;-89
2022/01/13 01:05:54;;;;;;;122.10;24.75;;;5.70;99.90;;;;;;6159751;23;20016;-86
2022/01/13 01:08:20;;;;;;;96.80;22.77;;;5.70;99.90;;;;;;6159525;23;20458;-87
2022/01/13 01:10:49;;;;;;;132.65;23.33;;;5.70;99.90;;;;;;6160812;23;20501;-87
2022/01/13 01:13:19;;;;;;;118.63;21.48;;;5.70;99.90;;;;;;6187739;23;20059;-88
2022/01/13 01:15:49;;;;;;;89.72;20.40;;;5.60;99.90;;;;;;6161304;23;20079;-87
2022/01/13 01:21:18;;;;;;;135.07;23.33;;;5.60;99.90;;;;;;6160723;23;20025;-85
2022/01/13 01:29:03;;;;;;;85.72;20.50;;;5.60;99.90;;;;;;6161173;23;20092;-85
2022/01/13 01:31:32;;;;;;;95.05;20.85;;;5.60;99.90;;;;;;6161187;23;20443;-90
2022/01/13 01:36:26;;;;;;;112.25;21.95;;;5.60;99.90;;;;;;6187575;23;20025;-85
2022/01/13 01:38:54;;;;;;;108.20;22.63;;;5.60;99.90;;;;;;6161522;23;20347;-86
2022/01/13 01:41:20;;;;;;;97.40;22.83;;;5.60;99.90;;;;;;6161539;23;20114;-90
2022/01/13 01:43:46;;;;;;;133.63;25.80;;;5.60;99.90;;;;;;6163416;23;20048;-96
2022/01/13 01:46:12;;;;;;;81.38;22.85;;;5.60;99.90;;;;;;6162663;23;20047;-87
2022/01/13 01:48:37;;;;;;;106.53;23.13;;;5.60;99.90;;;;;;6165067;23;20442;-87
2022/01/13 01:51:04;;;;;;;109.03;23.57;;;5.60;99.90;;;;;;6167712;23;20072;-86
2022/01/13 01:53:31;;;;;;;126.40;23.52;;;5.60;99.90;;;;;;6165319;23;20021;-88
2022/01/13 01:55:57;;;;;;;141.80;27.50;;;5.60;99.90;;;;;;6191141;23;20143;-87
2022/01/13 01:58:26;;;;;;;93.45;24.55;;;5.60;99.90;;;;;;6161431;23;20021;-93
2022/01/13 02:06:07;;;;;;;132.90;27.92;;;5.60;99.90;;;;;;6132499;23;20323;-90
2022/01/13 02:08:33;;;;;;;106.68;28.77;;;5.60;99.90;;;;;;6130705;23;20032;-87
2022/01/13 02:10:59;;;;;;;105.37;28.47;;;5.60;99.90;;;;;;6130794;23;20025;-86
2022/01/13 02:13:33;;;;;;;123.60;30.13;;;5.70;99.90;;;;;;6106040;23;20014;-86
2022/01/13 02:16:02;;;;;;;121.75;30.27;;;5.60;99.90;;;;;;6131069;23;20459;-87
2022/01/13 02:18:34;;;;;;;129.02;30.65;;;5.60;99.90;;;;;;6157560;23;20032;-87
2022/01/13 02:21:01;;;;;;;104.43;28.80;;;5.60;99.90;;;;;;6130151;23;20025;-87
2022/01/13 02:23:35;;;;;;;122.18;29.58;;;5.60;99.90;;;;;;6130715;23;20048;-87
2022/01/13 02:26:02;;;;;;;119.13;30.45;;;5.60;99.90;;;;;;6130830;23;20022;-90
2022/01/13 02:28:30;;;;;;;133.30;31.77;;;5.60;99.90;;;;;;6130619;23;20014;-91
2022/01/13 02:30:56;;;;;;;116.75;29.95;;;5.60;99.90;;;;;;6130284;23;20518;-87
2022/01/13 02:33:21;;;;;;;130.20;29.67;;;5.60;99.90;;;;;;6130412;23;20025;-88
2022/01/13 02:35:47;;;;;;;113.03;28.77;;;5.60;99.90;;;;;;6130369;23;20014;-88
2022/01/13 02:38:13;;;;;;;149.50;30.97;;;5.60;99.90;;;;;;6131108;23;20096;-91
2022/01/13 02:40:39;;;;;;;131.57;28.83;;;5.60;99.90;;;;;;6130978;23;20013;-90
2022/01/13 02:43:06;;;;;;;107.55;28.58;;;5.60;99.90;;;;;;6130969;23;20256;-88
2022/01/13 02:45:38;;;;;;;133.38;29.67;;;5.60;99.90;;;;;;6107755;23;20025;-87
2022/01/13 02:48:27;;;;;;;117.60;29.85;;;5.60;99.90;;;;;;6132085;23;20017;-86
2022/01/13 02:50:54;;;;;;;121.47;29.77;;;5.60;99.90;;;;;;6156917;23;20017;-87
2022/01/13 02:53:20;;;;;;;116.13;29.77;;;5.60;99.90;;;;;;6156652;23;20048;-88
2022/01/13 02:55:46;;;;;;;122.57;29.88;;;5.60;99.90;;;;;;6131739;23;20017;-87
2022/01/13 02:58:16;;;;;;;101.80;28.77;;;5.60;99.90;;;;;;6130507;23;20350;-87
2022/01/13 03:00:43;;;;;;;111.05;30.23;;;5.60;99.90;;;;;;6130605;23;20362;-87
2022/01/13 03:03:09;;;;;;;124.05;29.75;;;5.60;99.90;;;;;;6130557;23;20013;-87
2022/01/13 03:05:38;;;;;;;121.90;30.70;;;5.60;99.90;;;;;;6156816;23;20339;-87
2022/01/13 03:08:08;;;;;;;129.73;30.02;;;5.60;99.90;;;;;;6130398;23;20440;-87
2022/01/13 03:10:34;;;;;;;132.23;31.00;;;5.70;99.90;;;;;;6129826;23;20013;-91
2022/01/13 03:13:00;;;;;;;141.07;30.83;;;5.70;99.90;;;;;;6130317;23;20076;-89
2022/01/13 03:15:26;;;;;;;131.55;29.80;;;5.70;99.90;;;;;;6130266;23;20607;-87
2022/01/13 03:17:52;;;;;;;111.80;28.33;;;5.70;99.90;;;;;;6130216;23;20056;-88
2022/01/13 03:20:19;;;;;;;129.70;30.77;;;5.70;99.90;;;;;;6129738;23;20105;-93
2022/01/13 03:22:44;;;;;;;120.15;28.00;;;5.70;99.90;;;;;;6130237;23;20022;-93
2022/01/13 03:25:12;;;;;;;103.73;28.17;;;5.70;99.90;;;;;;6156223;23;20399;-87
2022/01/13 03:27:37;;;;;;;86.38;27.25;;;5.80;99.90;;;;;;6130402;23;20017;-88
2022/01/13 03:30:06;;;;;;;105.17;29.33;;;5.70;99.90;;;;;;6130143;23;20032;-88
2022/01/13 03:32:36;;;;;;;95.75;26.55;;;5.70;99.90;;;;;;6129854;23;20013;-89
2022/01/13 03:35:04;;;;;;;97.13;26.75;;;5.70;99.90;;;;;;6130166;23;20020;-87
2022/01/13 03:37:30;;;;;;;92.63;27.33;;;5.80;99.90;;;;;;6130137;23;20026;-87
2022/01/13 03:39:57;;;;;;;105.20;28.02;;;5.80;99.90;;;;;;6130072;23;20017;-88
2022/01/13 03:42:23;;;;;;;114.28;28.38;;;5.80;99.90;;;;;;6145419;23;20017;-88
2022/01/13 03:44:49;;;;;;;95.67;25.83;;;5.80;99.90;;;;;;6154669;23;20447;-91
2022/01/13 03:47:16;;;;;;;117.03;26.40;;;5.80;99.90;;;;;;6129959;23;20064;-88
2022/01/13 03:49:42;;;;;;;93.03;24.55;;;5.80;99.90;;;;;;6154933;23;20021;-88
2022/01/13 03:52:23;;;;;;;111.78;27.70;;;5.80;99.90;;;;;;6130366;23;20021;-90
2022/01/13 03:54:54;;;;;;;97.47;25.50;;;5.80;99.90;;;;;;6130337;23;20455;-87
2022/01/13 03:57:51;;;;;;;114.20;27.38;;;5.80;99.90;;;;;;6154656;23;20455;-87
2022/01/13 04:00:54;;;;;;;107.70;26.60;;;5.80;99.90;;;;;;6129763;23;20049;-86
2022/01/13 04:03:19;;;;;;;134.57;28.95;;;5.80;99.90;;;;;;6130085;23;20343;-88
2022/01/13 04:06:27;;;;;;;130.63;27.60;;;5.80;99.90;;;;;;6130010;23;20009;-88
2022/01/13 04:08:54;;;;;;;108.75;26.38;;;5.80;99.90;;;;;;6153857;23;20058;-89
2022/01/13 04:11:26;;;;;;;118.70;26.88;;;5.80;99.90;;;;;;6129907;23;20021;-92
2022/01/13 04:16:24;;;;;;;105.87;25.83;;;5.70;99.90;;;;;;6154918;23;20025;-90
2022/01/13 04:18:51;;;;;;;127.85;27.40;;;5.70;99.90;;;;;;6154542;23;20024;-89
2022/01/13 04:21:17;;;;;;;123.53;27.77;;;5.70;99.90;;;;;;6129755;23;20028;-93
2022/01/13 04:23:44;;;;;;;106.97;25.92;;;5.70;99.90;;;;;;6154490;23;20022;-89
2022/01/13 04:26:10;;;;;;;129.02;29.08;;;5.70;99.90;;;;;;6154560;23;20022;-89
2022/01/13 04:28:37;;;;;;;135.18;28.02;;;5.70;99.90;;;;;;6155953;23;20025;-88
2022/01/13 04:31:03;;;;;;;101.72;26.27;;;5.70;99.90;;;;;;6129483;23;20022;-90
2022/01/13 04:33:31;;;;;;;108.70;27.33;;;5.70;99.90;;;;;;6155819;23;20049;-88
2022/01/13 04:35:58;;;;;;;115.00;28.40;;;5.70;99.90;;;;;;6154149;23;20016;-89
2022/01/13 04:38:24;;;;;;;132.60;28.42;;;5.70;99.90;;;;;;6178771;23;20022;-90
2022/01/13 04:40:59;;;;;;;123.13;26.60;;;5.70;99.90;;;;;;6154347;23;20013;-90
2022/01/13 04:43:28;;;;;;;153.38;30.15;;;5.70;99.90;;;;;;6153878;23;20351;-90
2022/01/13 04:45:54;;;;;;;123.63;27.70;;;5.70;99.90;;;;;;6131079;23;20033;-91
2022/01/13 04:48:24;;;;;;;116.77;27.13;;;5.70;99.90;;;;;;6156035;23;20018;-88
2022/01/13 04:50:50;;;;;;;125.50;26.65;;;5.70;99.90;;;;;;6131073;23;20027;-88
2022/01/13 04:53:16;;;;;;;138.60;28.83;;;5.70;99.90;;;;;;6131484;23;20096;-88
2022/01/13 04:55:50;;;;;;;118.30;28.23;;;5.70;99.90;;;;;;6131547;23;20432;-89
2022/01/13 04:58:16;;;;;;;156.38;29.95;;;5.70;99.90;;;;;;6131228;23;20080;-88
2022/01/13 05:00:42;;;;;;;127.13;28.13;;;5.70;99.90;;;;;;6156066;23;20018;-86
2022/01/13 05:03:08;;;;;;;108.43;28.10;;;5.70;99.90;;;;;;6157172;23;20024;-89
2022/01/13 05:05:33;;;;;;;118.63;28.87;;;5.80;99.90;;;;;;6158318;23;20022;-89
2022/01/13 05:07:59;;;;;;;110.97;27.70;;;5.80;99.90;;;;;;6157164;23;20018;-89
2022/01/13 05:10:25;;;;;;;135.77;27.93;;;5.80;99.90;;;;;;6158783;23;20028;-91
2022/01/13 05:12:55;;;;;;;159.00;28.37;;;5.80;99.90;;;;;;6158584;23;20351;-88
2022/01/13 05:15:24;;;;;;;140.30;28.05;;;5.80;99.90;;;;;;6132163;23;20021;-86
2022/01/13 05:20:26;;;;;;;151.48;29.33;;;5.80;99.90;;;;;;6131461;23;20021;-88
2022/01/13 05:22:52;;;;;;;103.63;26.50;;;5.80;99.90;;;;;;6157649;23;20474;-87
2022/01/13 05:25:20;;;;;;;117.57;27.13;;;5.90;99.90;;;;;;6131164;23;20467;-95
2022/01/13 05:27:45;;;;;;;118.07;28.02;;;5.80;99.90;;;;;;6157510;23;20049;-87
2022/01/13 05:30:12;;;;;;;184.90;31.00;;;5.80;99.90;;;;;;6157481;23;20351;-86
2022/01/13 05:32:38;;;;;;;;;;;5.80;99.90;;;;;;6156307;23;20398;-88
2022/01/13 05:35:04;;;;;;;130.63;26.90;;;5.80;99.90;;;;;;6156025;23;19991;-88
2022/01/13 05:37:30;;;;;;;130.52;26.88;;;5.80;99.90;;;;;;6155856;23;20021;-89
2022/01/13 05:39:56;;;;;;;151.07;31.00;;;5.80;99.90;;;;;;6155735;23;20024;-86
2022/01/13 05:42:22;;;;;;;149.68;29.38;;;5.80;99.90;;;;;;6126123;23;20312;-91
2022/01/13 05:44:48;;;;;;;138.53;29.00;;;5.80;99.90;;;;;;6128216;23;20022;-90
2022/01/13 05:47:14;;;;;;;137.23;30.20;;;5.80;99.90;;;;;;6102284;23;20018;-90
2022/01/13 05:49:42;;;;;;;182.75;32.10;;;5.80;99.90;;;;;;6118330;23;20470;-88
2022/01/13 05:52:13;;;;;;;157.15;31.00;;;5.80;99.90;;;;;;6106514;23;20105;-91
2022/01/13 05:54:39;;;;;;;123.28;28.83;;;5.80;99.90;;;;;;6156092;23;20072;-90
2022/01/13 05:57:05;;;;;;;137.88;31.13;;;5.80;99.90;;;;;;6157266;23;20018;-94
2022/01/13 05:59:31;;;;;;;164.37;32.17;;;5.80;99.90;;;;;;6157037;23;20509;-92
2022/01/13 06:01:58;;;;;;;152.85;33.00;;;5.90;99.90;;;;;;6131449;23;20018;-92
2022/01/13 06:06:59;;;;;;;137.90;31.92;;;5.90;99.90;;;;;;6138846;23;20385;-88
2022/01/13 06:09:24;;;;;;;133.93;31.50;;;5.90;99.90;;;;;;6160633;23;20029;-91
2022/01/13 06:12:02;;;;;;;137.03;30.47;;;5.90;99.90;;;;;;6136186;23;20023;-89
2022/01/13 06:14:31;;;;;;;154.23;31.50;;;5.90;99.90;;;;;;6160297;23;20068;-91
2022/01/13 06:17:09;;;;;;;148.50;31.60;;;6.00;99.90;;;;;;6162788;23;20023;-91
2022/01/13 06:28:04;;;;;;;148.27;33.72;;;6.10;99.90;;;;;;6128124;23;20029;-91
2022/01/13 06:30:32;;;;;;;164.88;33.67;;;6.10;99.90;;;;;;6077896;23;20471;-94
2022/01/13 06:32:58;;;;;;;156.38;32.78;;;6.10;99.90;;;;;;6079179;23;20669;-93
2022/01/13 06:35:24;;;;;;;143.53;33.00;;;6.10;99.90;;;;;;6103575;23;20018;-90
2022/01/13 06:37:49;;;;;;;147.03;32.87;;;6.10;99.90;;;;;;6104362;23;20045;-93
2022/01/13 06:40:52;;;;;;;152.43;33.70;;;6.10;99.90;;;;;;6082088;23;20049;-88
2022/01/13 06:43:50;;;;;;;164.02;32.08;;;6.10;99.90;;;;;;6110491;23;20073;-91
2022/01/13 06:46:16;;;;;;;142.07;33.38;;;6.10;99.90;;;;;;6074936;23;20022;-91
2022/01/13 06:48:45;;;;;;;146.60;32.10;;;6.20;99.90;;;;;;6076572;23;20028;-91
2022/01/13 06:51:11;;;;;;;146.23;32.03;;;6.10;99.90;;;;;;6077244;23;20025;-91
2022/01/13 06:53:37;;;;;;;137.40;32.63;;;6.10;99.90;;;;;;6077705;23;20010;-92
2022/01/13 06:56:04;;;;;;;145.47;33.57;;;6.20;99.90;;;;;;6077937;23;20080;-94
2022/01/13 06:58:30;;;;;;;151.77;33.83;;;6.20;99.90;;;;;;6078094;23;20014;-93
2022/01/13 07:00:55;;;;;;;179.18;35.17;;;6.20;99.90;;;;;;6077883;23;20005;-96
2022/01/13 07:03:22;;;;;;;165.90;33.97;;;6.20;99.90;;;;;;6078306;23;20084;-91
2022/01/13 07:05:47;;;;;;;150.32;33.10;;;6.20;99.90;;;;;;6078637;23;20037;-91
2022/01/13 07:08:14;;;;;;;158.90;34.20;;;6.20;99.90;;;;;;6078817;23;20017;-95
2022/01/13 07:10:40;;;;;;;163.40;34.22;;;6.20;99.90;;;;;;6079362;23;20340;-94
2022/01/13 07:13:25;;;;;;;156.20;33.93;;;6.10;99.90;;;;;;6079991;23;20053;-89
2022/01/13 07:15:51;;;;;;;134.70;32.42;;;6.20;99.90;;;;;;6098310;23;20037;-89
2022/01/13 07:18:17;;;;;;;138.27;32.83;;;6.20;99.90;;;;;;6098883;23;20021;-88
2022/01/13 07:20:44;;;;;;;129.67;32.90;;;6.20;99.90;;;;;;6099708;23;20436;-87
2022/01/13 07:23:11;;;;;;;139.10;32.72;;;6.20;99.90;;;;;;6076864;23;20352;-89
2022/01/13 07:26:20;;;;;;;147.23;34.97;;;6.20;99.90;;;;;;6101219;23;20325;-88
2022/01/13 07:28:49;;;;;;;126.00;32.53;;;6.20;99.90;;;;;;6069865;23;20022;-87
2022/01/13 07:31:15;;;;;;;136.82;33.50;;;6.20;99.90;;;;;;6095787;23;20352;-85
2022/01/13 07:33:42;;;;;;;124.27;33.23;;;6.20;99.90;;;;;;6070777;23;20019;-85
2022/01/13 07:36:08;;;;;;;126.50;33.80;;;6.30;99.90;;;;;;6070451;23;20046;-87
2022/01/13 07:38:34;;;;;;;116.53;31.73;;;6.30;99.90;;;;;;6070939;23;20023;-86
2022/01/13 07:41:00;;;;;;;124.80;33.77;;;6.30;99.90;;;;;;6096641;23;20018;-85
2022/01/13 07:43:26;;;;;;;131.50;33.37;;;6.30;99.90;;;;;;6069625;23;20026;-86
2022/01/13 07:45:53;;;;;;;139.90;33.90;;;6.30;99.90;;;;;;6070896;23;20467;-88
2022/01/13 07:48:19;;;;;;;;;;;6.30;99.90;;;;;;6070936;23;20015;-85
2022/01/13 07:50:45;;;;;;;121.85;32.15;;;6.30;99.90;;;;;;6096431;23;19939;-84
2022/01/13 07:53:11;;;;;;;122.83;32.63;;;6.30;99.90;;;;;;6096456;23;20082;-85
2022/01/13 07:55:37;;;;;;;115.83;34.47;;;6.30;99.90;;;;;;6096367;23;20247;-92
2022/01/13 08:00:38;;;;;;;124.97;33.35;;;6.40;99.90;;;;;;6067520;23;1119212;-91
2022/01/13 08:03:04;;;;;;;121.30;36.13;;;6.40;99.90;;;;;;6100890;23;20048;-91
2022/01/13 08:05:30;;;;;;;132.90;35.90;;;6.40;99.90;;;;;;6100942;23;20133;-89
2022/01/13 08:07:55;;;;;;;130.38;33.97;;;6.40;99.90;;;;;;6100916;23;20032;-91
2022/01/13 08:10:21;;;;;;;139.93;36.03;;;6.40;99.90;;;;;;6125172;23;20113;-87
2022/01/13 08:12:47;;;;;;;122.53;36.43;;;6.40;99.90;;;;;;6101062;23;20069;-88
2022/01/13 08:15:14;;;;;;;153.47;37.77;;;6.40;99.90;;;;;;6101284;23;20080;-92
2022/01/13 08:20:28;;;;;;;137.38;35.45;;;6.40;99.90;;;;;;6126222;23;20234;-87
2022/01/13 08:22:53;;;;;;;165.33;38.00;;;6.50;99.90;;;;;;6100837;23;20018;-89
2022/01/13 08:25:20;;;;;;;135.23;35.50;;;6.40;99.90;;;;;;6100581;23;20281;-90
2022/01/13 08:27:45;;;;;;;140.23;36.95;;;6.50;99.90;;;;;;6126331;23;20022;-90
2022/01/13 08:30:12;;;;;;;125.50;34.67;;;6.50;99.90;;;;;;6100890;23;20029;-88
2022/01/13 08:32:37;;;;;;;143.93;35.08;;;6.50;99.90;;;;;;6100296;23;20018;-86
2022/01/13 08:35:04;;;;;;;119.67;33.83;;;6.50;99.90;;;;;;6100280;23;20069;-86
2022/01/13 08:37:32;;;;;;;132.85;35.10;;;6.50;99.90;;;;;;6100674;23;20092;-90
2022/01/13 08:39:59;;;;;;;114.03;33.20;;;6.40;99.90;;;;;;6100124;23;20045;-91
2022/01/13 08:42:25;;;;;;;;;;;6.50;99.90;;;;;;6101118;23;20018;-89
2022/01/13 08:44:51;;;;;;;111.90;32.75;;;6.50;99.90;;;;;;6126765;23;19924;-88
2022/01/13 08:47:17;;;;;;;108.83;33.27;;;6.50;99.90;;;;;;6100950;23;20344;-87
2022/01/13 08:49:43;;;;;;;108.60;32.13;;;6.40;99.90;;;;;;6100436;23;20022;-88
2022/01/13 08:52:08;;;;;;;106.17;31.80;;;6.40;99.90;;;;;;6100462;23;20026;-91
2022/01/13 08:54:34;;;;;;;102.13;32.63;;;6.50;99.90;;;;;;6124981;23;20024;-91
2022/01/13 08:57:00;;;;;;;104.53;33.37;;;6.40;99.90;;;;;;6100466;23;20025;-90
2022/01/13 08:59:27;;;;;;;110.45;33.25;;;6.40;99.90;;;;;;6100327;23;20057;-87
2022/01/13 09:01:53;;;;;;;106.68;32.05;;;6.40;99.90;;;;;;6124842;23;20025;-87
2022/01/13 09:04:20;;;;;;;113.83;34.00;;;6.40;99.90;;;;;;6126192;23;20018;-90
2022/01/13 09:06:46;;;;;;;102.15;31.17;;;6.40;99.90;;;;;;6100186;23;20061;-94
2022/01/13 09:09:14;;;;;;;116.03;32.80;;;6.50;99.90;;;;;;6100507;23;20049;-87
2022/01/13 09:11:41;;;;;;;88.15;30.00;;;6.50;99.90;;;;;;6100376;23;20470;-88
2022/01/13 09:14:07;;;;;;;99.35;29.83;;;6.50;99.90;;;;;;6100863;23;20456;-89
2022/01/13 09:16:41;;;;;;;80.73;30.33;;;6.50;99.90;;;;;;6100882;23;20024;-88
2022/01/13 09:19:09;;;;;;;95.65;29.77;;;6.50;99.90;;;;;;6100165;23;20096;-87
2022/01/13 09:21:37;;;;;;;83.00;30.75;;;6.50;99.90;;;;;;6076340;23;20017;-91
2022/01/13 09:24:04;;;;;;;88.40;28.73;;;6.50;99.90;;;;;;6100234;23;20014;-90
2022/01/13 09:26:30;;;;;;;92.07;29.83;;;6.50;99.90;;;;;;6100286;23;20388;-91
2022/01/13 09:28:56;;;;;;;80.03;30.40;;;6.50;99.90;;;;;;6126057;23;20022;-87
2022/01/13 09:31:22;;;;;;;79.33;29.37;;;6.50;99.90;;;;;;6101463;23;20026;-90
2022/01/13 09:33:48;;;;;;;88.28;30.63;;;6.50;99.90;;;;;;6078307;23;20018;-89
2022/01/13 09:36:15;;;;;;;78.60;29.60;;;6.50;99.90;;;;;;6078350;23;20022;-88
2022/01/13 09:38:41;;;;;;;85.15;30.52;;;6.50;99.90;;;;;;6128293;23;20021;-87
2022/01/13 09:41:07;;;;;;;82.23;30.03;;;6.50;99.90;;;;;;6102143;23;20467;-88
2022/01/13 09:43:38;;;;;;;81.10;28.63;;;6.50;99.90;;;;;;6128384;23;20020;-87
2022/01/13 09:46:04;;;;;;;85.10;30.27;;;6.50;99.90;;;;;;6101673;23;20037;-88
2022/01/13 09:48:46;;;;;;;84.93;32.27;;;6.60;99.90;;;;;;6128385;23;20018;-90
2022/01/13 09:51:11;;;;;;;90.88;31.13;;;6.60;99.90;;;;;;6126191;23;20026;-86
2022/01/13 09:53:40;;;;;;;71.67;31.40;;;6.60;99.90;;;;;;6102021;23;20018;-89
2022/01/13 09:56:06;;;;;;;86.55;30.55;;;6.60;99.90;;;;;;6101997;23;20018;-88
2022/01/13 09:58:32;;;;;;;88.43;31.13;;;6.60;99.90;;;;;;6102200;23;20506;-88
2022/01/13 10:00:58;;;;;;;82.03;29.50;;;6.60;99.90;;;;;;6078138;23;20018;-89
2022/01/13 10:03:28;;;;;;;84.73;29.80;;;6.70;99.90;;;;;;6102080;23;20092;-88
2022/01/13 10:06:15;;;;;;;85.93;30.15;;;6.70;99.90;;;;;;6102417;23;20038;-90
2022/01/13 10:08:53;;;;;;;80.15;29.83;;;6.70;99.90;;;;;;6101732;23;20022;-90
2022/01/13 10:11:27;;;;;;;76.78;29.73;;;6.70;99.90;;;;;;6102095;23;20018;-92
2022/01/13 10:17:16;;;;;;;83.90;30.98;;;6.60;99.90;;;;;;6101485;23;20022;-93
2022/01/13 10:19:46;;;;;;;82.57;30.23;;;6.60;99.90;;;;;;6102036;23;20107;-88
2022/01/13 10:22:33;;;;;;;94.70;31.48;;;6.60;99.90;;;;;;6128875;23;20021;-89
2022/01/13 10:24:59;;;;;;;81.15;31.75;;;6.60;99.90;;;;;;6077828;23;20439;-88
2022/01/13 10:27:30;;;;;;;86.35;32.50;;;6.60;99.90;;;;;;6077455;23;20093;-89
2022/01/13 10:30:07;;;;;;;86.18;30.92;;;6.60;99.90;;;;;;6101661;23;20085;-90
2022/01/13 10:32:37;;;;;;;94.68;32.60;;;6.60;99.90;;;;;;6101542;23;20014;-91
2022/01/13 10:35:15;;;;;;;74.28;30.42;;;6.60;99.90;;;;;;6101835;23;20018;-89
2022/01/13 10:37:45;;;;;;;76.38;30.50;;;6.60;99.90;;;;;;6095302;23;20018;-87
2022/01/13 10:40:18;;;;;;;71.63;28.95;;;6.60;99.90;;;;;;6101477;23;20029;-88
2022/01/13 10:45:20;;;;;;;78.03;30.45;;;6.60;99.90;;;;;;6101608;23;20029;-89
2022/01/13 10:48:15;;;;;;;80.50;31.95;;;6.60;99.90;;;;;;6101131;23;20096;-90
2022/01/13 10:50:50;;;;;;;77.75;30.80;;;6.60;99.90;;;;;;6101392;23;20065;-87
2022/01/13 10:53:20;;;;;;;76.75;31.63;;;6.60;99.90;;;;;;6101452;23;20033;-88
2022/01/13 10:55:51;;;;;;;81.22;31.25;;;6.60;99.90;;;;;;6127579;23;20025;-88
2022/01/13 10:58:19;;;;;;;78.53;30.98;;;6.60;99.90;;;;;;6101703;23;20065;-88
2022/01/13 11:00:49;;;;;;;69.40;30.00;;;6.60;99.90;;;;;;6101253;23;20020;-90
2022/01/13 11:03:27;;;;;;;75.00;30.73;;;6.70;99.90;;;;;;6102140;23;20033;-89
2022/01/13 11:05:56;;;;;;;79.63;32.38;;;6.70;99.90;;;;;;6101763;23;20452;-90
2022/01/13 11:08:43;;;;;;;87.68;33.03;;;6.70;99.90;;;;;;6101745;23;20018;-91
2022/01/13 11:11:25;;;;;;;81.13;32.73;;;6.70;99.90;;;;;;6077250;23;20029;-88
2022/01/13 11:13:56;;;;;;;82.80;30.98;;;6.70;99.90;;;;;;6100510;23;20421;-91
2022/01/13 11:16:24;;;;;;;75.78;31.75;;;6.70;99.90;;;;;;6101216;23;20440;-89
2022/01/13 11:18:51;;;;;;;84.43;33.38;;;6.70;99.90;;;;;;6101277;23;20025;-90
2022/01/13 11:21:17;;;;;;;80.07;31.95;;;6.70;99.90;;;;;;6125823;23;20046;-89
2022/01/13 11:23:48;;;;;;;79.30;32.77;;;6.70;99.90;;;;;;6101677;23;20069;-92
2022/01/13 11:26:15;;;;;;;74.35;32.30;;;6.70;99.90;;;;;;6101286;23;20345;-91
2022/01/13 11:28:42;;;;;;;86.78;33.42;;;6.80;99.90;;;;;;6077776;23;20447;-91
2022/01/13 11:31:09;;;;;;;91.40;34.72;;;6.70;99.90;;;;;;6101554;23;20464;-88
2022/01/13 11:33:35;;;;;;;;;;;6.70;99.90;;;;;;6102065;23;20463;-89
2022/01/13 11:36:01;;;;;;;84.03;33.53;;;6.80;99.90;;;;;;6101456;23;20323;-92
2022/01/13 11:38:29;;;;;;;77.43;33.38;;;6.70;99.90;;;;;;6101218;23;20451;-88
2022/01/13 11:41:02;;;;;;;85.43;34.60;;;6.80;99.90;;;;;;6077235;23;20347;-89
2022/01/13 11:43:34;;;;;;;76.28;32.53;;;6.80;99.90;;;;;;6128563;23;20096;-90
2022/01/13 11:46:22;;;;;;;76.88;33.50;;;6.80;99.90;;;;;;6104476;23;20092;-89
2022/01/13 11:49:15;;;;;;;68.45;32.50;;;6.80;99.90;;;;;;6101244;23;20022;-91
2022/01/13 11:51:55;;;;;;;74.10;32.20;;;6.90;99.90;;;;;;6101273;23;20072;-89
2022/01/13 11:54:33;;;;;;;65.43;30.60;;;6.90;99.90;;;;;;6106697;23;20024;-88
2022/01/13 11:57:11;;;;;;;60.15;29.17;;;6.90;99.90;;;;;;6101873;23;20022;-90
2022/01/13 11:59:38;;;;;;;63.35;32.55;;;6.90;99.90;;;;;;6100930;23;20023;-90
2022/01/13 12:02:25;;;;;;;56.67;27.25;;;6.90;99.90;;;;;;6077212;23;20018;-93
2022/01/13 12:05:07;;;;;;;51.83;26.67;;;7.00;99.90;;;;;;6101003;23;20018;-91
2022/01/13 12:07:42;;;;;;;52.17;26.80;;;6.90;99.90;;;;;;6101025;23;20563;-91
2022/01/13 12:10:09;;;;;;;57.75;28.30;;;7.00;99.90;;;;;;6101089;23;20405;-92
2022/01/13 12:12:37;;;;;;;62.00;29.10;;;7.00;99.90;;;;;;6077121;23;20408;-91
2022/01/13 12:15:15;;;;;;;62.58;28.73;;;7.00;99.90;;;;;;6126758;23;20028;-91
2022/01/13 12:17:50;;;;;;;57.33;29.15;;;7.00;99.90;;;;;;6100783;23;20028;-93
2022/01/13 12:20:40;;;;;;;58.05;28.55;;;7.00;99.90;;;;;;6102091;23;20448;-89
2022/01/13 12:23:17;;;;;;;61.63;28.75;;;7.00;99.90;;;;;;6101064;23;20018;-87
2022/01/13 12:25:44;;;;;;;62.33;30.63;;;7.00;99.90;;;;;;6101251;23;20022;-89
2022/01/13 12:28:15;;;;;;;64.75;30.17;;;7.00;99.90;;;;;;6100641;23;20056;-91
2022/01/13 12:30:50;;;;;;;60.15;31.02;;;7.00;99.90;;;;;;6101263;23;20018;-93
2022/01/13 12:33:33;;;;;;;56.92;29.60;;;7.00;99.90;;;;;;6125717;23;20029;-92
2022/01/13 12:35:59;;;;;;;54.85;27.60;;;7.00;99.90;;;;;;6101426;23;20115;-88
2022/01/13 12:38:26;;;;;;;53.60;28.17;;;7.00;99.90;;;;;;6100997;23;20411;-89
2022/01/13 12:41:04;;;;;;;56.40;28.48;;;7.00;99.90;;;;;;6101571;23;20250;-91
2022/01/13 12:43:50;;;;;;;55.03;28.55;;;7.10;99.90;;;;;;6100822;23;20022;-88
2022/01/13 12:46:24;;;;;;;54.83;28.08;;;7.10;99.90;;;;;;6101039;23;20018;-89
2022/01/13 12:48:52;;;;;;;57.97;27.95;;;7.10;99.90;;;;;;6101224;23;20097;-91
2022/01/13 12:51:21;;;;;;;53.45;26.58;;;7.20;99.90;;;;;;6100854;23;20039;-90
2022/01/13 12:53:48;;;;;;;54.60;26.70;;;7.10;99.90;;;;;;6100751;23;20021;-92
2022/01/13 12:56:18;;;;;;;43.60;26.30;;;7.20;99.90;;;;;;6101197;23;20018;-90
2022/01/13 12:58:51;;;;;;;54.40;27.48;;;7.20;99.90;;;;;;6100997;23;20018;-91
2022/01/13 13:01:24;;;;;;;56.65;27.65;;;7.20;99.90;;;;;;6100498;23;20025;-90
2022/01/13 13:04:05;;;;;;;55.40;27.35;;;7.30;99.90;;;;;;6101053;23;20444;-89
2022/01/13 13:06:33;;;;;;;53.90;25.98;;;7.30;99.90;;;;;;6102238;23;20060;-89
2022/01/13 13:09:19;;;;;;;50.25;27.08;;;7.30;99.90;;;;;;6078776;23;20077;-91
2022/01/13 13:11:49;;;;;;;51.67;25.88;;;7.40;99.90;;;;;;6102844;23;20448;-89
2022/01/13 13:14:33;;;;;;;49.15;26.58;;;7.40;99.90;;;;;;6102425;23;20097;-89
2022/01/13 13:16:59;;;;;;;48.40;25.90;;;7.40;99.90;;;;;;6103004;23;20069;-90
2022/01/13 13:19:24;;;;;;;49.53;25.77;;;7.40;99.90;;;;;;6102723;23;20009;-89
2022/01/13 13:21:53;;;;;;;46.07;24.10;;;7.50;99.90;;;;;;6077958;23;20025;-89
2022/01/13 13:24:22;;;;;;;43.85;24.27;;;7.50;99.90;;;;;;6102772;23;20022;-90
2022/01/13 13:26:48;;;;;;;44.05;22.15;;;7.60;99.90;;;;;;6078605;23;20025;-93
2022/01/13 13:29:25;;;;;;;42.90;22.48;;;7.60;99.90;;;;;;6102576;23;20022;-90
2022/01/13 13:31:55;;;;;;;38.58;21.52;;;7.60;99.90;;;;;;6102544;23;20017;-89